KRBD/RBD METAR and TAF weather

Enter ICAO airport designator
Station Type Date Time Source
KRBD METAR 2019/12/08 18:53 UTC NOAA

KRBD 081853Z 18016G27KT 10SM CLR 20/09 A2988 RMK AO2 PK WND 19029/1828 SLP115 T02000094


Station Type Date Time Source
KRBD Decoded METAR 2019/12/08 18:53 UTC NOAA

DALLAS EXECUTIVE AIRPORT, TX, United States (KRBD) 32-41N 096-52W 203M
Dec 08, 2019 - 01:53 PM EST / 2019.12.08 1853 UTC
Wind: from the S (180 degrees) at 18 MPH (16 KT) gusting to 31 MPH (27 KT):0
Visibility: 10 mile(s):0
Sky conditions: clear
Temperature: 68.0 F (20.0 C)
Dew Point: 48.9 F (9.4 C)
Relative Humidity: 50%
Pressure (altimeter): 29.88 in. Hg (1011 hPa)
ob: KRBD 081853Z 18016G27KT 10SM CLR 20/09 A2988 RMK AO2 PK WND 19029/1828 SLP115 T02000094
cycle: 19

Station Type Date Time Source
KRBD TAF UTC NOAA

Error!

Example: see airport list